createdAt,value
2022-08-12T00:02:45.389Z,99458.84
2022-08-12T00:05:32.196Z,99460.69
2022-08-12T00:08:17.616Z,99457.53
2022-08-12T00:11:18.380Z,99458.16
2022-08-12T00:14:03.779Z,99460.50
2022-08-12T00:16:49.148Z,99475.38
2022-08-12T00:19:34.704Z,99464.84
2022-08-12T00:22:20.601Z,99467.13
2022-08-12T00:25:06.357Z,99459.22
2022-08-12T00:27:51.930Z,99470.03
2022-08-12T00:30:37.577Z,99460.41
2022-08-12T00:33:22.819Z,99462.69
2022-08-12T00:36:17.811Z,99460.00
2022-08-12T00:39:17.902Z,99457.00
2022-08-12T00:42:04.997Z,99456.69
2022-08-12T00:44:31.612Z,99464.91
2022-08-12T00:47:00.666Z,99473.19
2022-08-12T00:49:29.416Z,99473.19
2022-08-12T00:52:07.465Z,99478.59
2022-08-12T00:54:43.588Z,99474.31
2022-08-12T00:57:22.198Z,99474.69
2022-08-12T01:00:20.973Z,99468.75
2022-08-12T01:02:52.415Z,99466.06
2022-08-12T01:05:40.676Z,99474.66
2022-08-12T01:08:27.187Z,99469.78
2022-08-12T01:11:14.032Z,99488.03
2022-08-12T01:13:45.045Z,99483.03
2022-08-12T01:16:12.288Z,99477.59
2022-08-12T01:18:40.391Z,99483.25
2022-08-12T01:21:12.468Z,99487.53
2022-08-12T01:23:55.822Z,99479.28
2022-08-12T01:26:24.848Z,99487.75
2022-08-12T01:28:59.478Z,99484.09
2022-08-12T01:31:29.452Z,99481.09
2022-08-12T01:34:35.371Z,99484.78
2022-08-12T01:37:00.992Z,99485.25
2022-08-12T01:39:33.827Z,99490.22
2022-08-12T01:42:05.564Z,99487.03
2022-08-12T01:44:33.237Z,99491.72
2022-08-12T01:47:43.369Z,99497.00
2022-08-12T01:50:30.382Z,99495.84
2022-08-12T01:53:18.867Z,99494.19
2022-08-12T01:55:47.705Z,99497.63
2022-08-12T01:58:56.170Z,99495.16
2022-08-12T02:01:34.645Z,99494.16
2022-08-12T02:04:36.658Z,99490.00
2022-08-12T02:07:53.521Z,99492.00
2022-08-12T02:10:56.919Z,99484.88
2022-08-12T02:13:49.695Z,99484.69
2022-08-12T02:16:54.186Z,99482.06
2022-08-12T02:19:50.712Z,99482.34
2022-08-12T02:22:38.540Z,99477.56
2022-08-12T02:25:15.829Z,99477.56
2022-08-12T02:27:48.519Z,99480.56
2022-08-12T02:30:23.906Z,99484.50
2022-08-12T02:32:54.800Z,99481.38
2022-08-12T02:35:26.781Z,99474.09
2022-08-12T02:37:57.491Z,99471.44
2022-08-12T02:40:26.890Z,99475.53
2022-08-12T02:43:04.546Z,99474.06
2022-08-12T02:45:43.171Z,99470.44
2022-08-12T02:48:11.376Z,99470.38
2022-08-12T02:50:42.831Z,99467.75
2022-08-12T02:53:10.878Z,99458.59
2022-08-12T02:55:37.740Z,99460.44
2022-08-12T02:58:09.262Z,99464.06
2022-08-12T03:00:41.411Z,99459.41
2022-08-12T03:03:11.441Z,99458.66
2022-08-12T03:05:52.422Z,99449.81
2022-08-12T03:08:32.602Z,99448.31
2022-08-12T03:11:06.207Z,99454.59
2022-08-12T03:13:42.104Z,99466.00
2022-08-12T03:16:08.980Z,99464.34
2022-08-12T03:18:36.116Z,99468.41
2022-08-12T03:21:03.333Z,99458.97
2022-08-12T03:23:31.197Z,99467.69
2022-08-12T03:26:02.881Z,99467.53
2022-08-12T03:28:50.914Z,99463.38
2022-08-12T03:31:24.817Z,99461.22
2022-08-12T03:34:02.165Z,99462.72
2022-08-12T03:36:31.829Z,99454.59
2022-08-12T03:39:38.213Z,99459.25
2022-08-12T03:42:17.170Z,99467.25
2022-08-12T03:45:15.830Z,99469.25
2022-08-12T03:48:26.388Z,99473.69
2022-08-12T03:51:12.865Z,99481.56
2022-08-12T03:53:59.239Z,99477.28
2022-08-12T03:56:44.555Z,99484.16
2022-08-12T03:59:30.639Z,99482.56
2022-08-12T04:01:58.511Z,99486.63
2022-08-12T04:04:36.281Z,99483.78
2022-08-12T04:07:08.285Z,99481.72
2022-08-12T04:09:38.347Z,99484.38
2022-08-12T04:12:26.149Z,99486.28
2022-08-12T04:14:54.359Z,99480.38
2022-08-12T04:17:22.019Z,99489.66
2022-08-12T04:19:49.615Z,99481.50
2022-08-12T04:22:16.860Z,99488.91
2022-08-12T04:24:47.688Z,99488.41
2022-08-12T04:27:17.398Z,99486.78
2022-08-12T04:30:17.220Z,99483.84
2022-08-12T04:32:32.275Z,99487.81
2022-08-12T04:34:59.196Z,99485.94
2022-08-12T04:37:26.188Z,99485.00
2022-08-12T04:39:54.446Z,99478.72
2022-08-12T04:42:21.933Z,99480.38
2022-08-12T04:44:49.122Z,99487.00
2022-08-12T04:47:17.092Z,99490.31
2022-08-12T04:49:45.430Z,99492.19
2022-08-12T04:52:12.740Z,99499.97
2022-08-12T04:54:44.149Z,99494.31
2022-08-12T04:57:11.087Z,99502.28
2022-08-12T04:59:46.483Z,99500.63
2022-08-12T05:02:21.036Z,99501.38
2022-08-12T05:04:51.314Z,99494.94
2022-08-12T05:07:18.260Z,99493.16
2022-08-12T05:09:59.276Z,99495.81
2022-08-12T05:12:37.417Z,99495.19
2022-08-12T05:15:19.797Z,99497.56
2022-08-12T05:17:53.578Z,99484.69
2022-08-12T05:20:22.958Z,99496.00
2022-08-12T05:22:56.967Z,99498.84
2022-08-12T05:25:25.393Z,99505.09
2022-08-12T05:27:58.345Z,99510.38
2022-08-12T05:30:27.121Z,99506.03
2022-08-12T05:32:58.977Z,99513.38
2022-08-12T05:35:28.122Z,99522.19
2022-08-12T05:38:14.876Z,99511.75
2022-08-12T05:40:42.229Z,99515.78
2022-08-12T05:43:09.322Z,99509.34
2022-08-12T05:45:39.351Z,99516.78
2022-08-12T05:48:09.747Z,99515.81
2022-08-12T05:50:36.541Z,99516.00
2022-08-12T05:53:03.590Z,99518.16
2022-08-12T05:55:31.515Z,99522.34
2022-08-12T05:57:59.123Z,99521.66
2022-08-12T06:00:26.375Z,99520.16
2022-08-12T06:03:01.446Z,99518.56
2022-08-12T06:05:52.734Z,99525.84
2022-08-12T06:08:22.961Z,99524.84
2022-08-12T06:10:50.662Z,99517.41
2022-08-12T06:13:28.355Z,99526.66
2022-08-12T06:16:07.538Z,99525.50
2022-08-12T06:18:34.508Z,99529.75
2022-08-12T06:21:02.028Z,99527.22
2022-08-12T06:23:30.147Z,99540.66
2022-08-12T06:25:57.853Z,99537.00
2022-08-12T06:28:25.119Z,99529.66
2022-08-12T06:33:57.858Z,99530.88
2022-08-12T06:36:33.574Z,99532.53
2022-08-12T06:39:00.674Z,99525.78
2022-08-12T06:42:31.354Z,99536.41
2022-08-12T06:44:33.019Z,99533.31
2022-08-12T06:47:00.207Z,99526.03
2022-08-12T06:49:28.480Z,99521.00
2022-08-12T06:51:56.822Z,99519.69
2022-08-12T06:54:31.305Z,99518.34
2022-08-12T06:58:08.208Z,99516.47
2022-08-12T06:59:45.948Z,99511.09
2022-08-12T07:02:13.372Z,99514.94
2022-08-12T07:04:40.790Z,99517.97
2022-08-12T07:07:09.224Z,99515.09
2022-08-12T07:10:03.624Z,99504.53
2022-08-12T07:12:28.083Z,99509.63
2022-08-12T07:15:02.131Z,99497.47
2022-08-12T07:17:36.429Z,99499.44
2022-08-12T07:20:10.004Z,99509.88
2022-08-12T07:22:37.752Z,99509.03
2022-08-12T07:25:23.536Z,99503.91
2022-08-12T07:27:53.978Z,99506.63
2022-08-12T07:30:20.916Z,99509.25
2022-08-12T07:32:51.775Z,99502.78
2022-08-12T07:35:19.851Z,99502.47
2022-08-12T07:37:47.667Z,99497.16
2022-08-12T07:40:15.591Z,99495.22
2022-08-12T07:42:44.164Z,99502.66
2022-08-12T07:45:12.438Z,99498.41
2022-08-12T07:47:43.663Z,99491.47
2022-08-12T07:50:17.856Z,99491.91
2022-08-12T07:52:48.665Z,99491.47
2022-08-12T07:55:16.925Z,99481.78
2022-08-12T07:57:57.971Z,99486.50
2022-08-12T08:00:31.668Z,99477.63
2022-08-12T08:02:59.062Z,99481.78
2022-08-12T08:05:29.046Z,99486.22
2022-08-12T08:08:02.566Z,99488.50
2022-08-12T08:10:30.689Z,99488.03
2022-08-12T08:12:59.642Z,99487.38
2022-08-12T08:16:00.794Z,99489.00
2022-08-12T08:18:26.826Z,99493.44
2022-08-12T08:20:55.203Z,99494.09
2022-08-12T08:23:21.919Z,99489.91
2022-08-12T08:25:56.735Z,99492.28
2022-08-12T08:28:23.388Z,99488.03
2022-08-12T08:30:50.461Z,99493.06
2022-08-12T08:33:23.641Z,99489.50
2022-08-12T08:36:07.683Z,99482.75
2022-08-12T08:38:57.680Z,99490.97
2022-08-12T08:42:15.210Z,99496.72
2022-08-12T08:44:32.209Z,99492.50
2022-08-12T08:47:05.770Z,99479.66
2022-08-12T08:49:35.175Z,99480.09
2022-08-12T08:52:06.284Z,99481.28
2022-08-12T08:54:34.287Z,99473.22
2022-08-12T08:57:02.777Z,99476.91
2022-08-12T08:59:30.438Z,99480.75
2022-08-12T09:01:57.460Z,99477.00
2022-08-12T09:05:12.524Z,99483.81
2022-08-12T09:07:16.731Z,99483.38
2022-08-12T09:10:02.419Z,99482.66
2022-08-12T09:12:54.698Z,99475.88
2022-08-12T09:18:12.225Z,99464.28
2022-08-12T09:20:42.392Z,99460.34
2022-08-12T09:23:59.788Z,99460.78
2022-08-12T09:26:03.971Z,99443.63
2022-08-12T09:28:33.676Z,99454.81
2022-08-12T09:31:00.535Z,99450.25
2022-08-12T09:34:27.833Z,99458.84
2022-08-12T09:36:31.101Z,99455.31
2022-08-12T09:40:03.264Z,99470.31
2022-08-12T09:42:39.129Z,99453.09
2022-08-12T09:45:24.668Z,99467.31
2022-08-12T09:48:10.048Z,99463.56
2022-08-12T09:50:55.076Z,99450.53
2022-08-12T09:53:29.458Z,99448.31
2022-08-12T09:56:58.968Z,99445.03
2022-08-12T09:58:59.879Z,99431.22
2022-08-12T10:01:35.296Z,99444.09
2022-08-12T10:04:19.872Z,99433.09
2022-08-12T10:06:54.672Z,99431.00
2022-08-12T10:09:28.959Z,99417.94
2022-08-12T10:12:34.700Z,99430.63
2022-08-12T10:15:04.957Z,99410.91
2022-08-12T10:17:34.925Z,99419.00
2022-08-12T10:20:24.952Z,99415.63
2022-08-12T10:23:01.951Z,99405.53
2022-08-12T10:26:34.916Z,99406.09
2022-08-12T10:29:02.475Z,99406.72
2022-08-12T10:32:20.086Z,99398.72
2022-08-12T10:34:27.855Z,99398.72
2022-08-12T10:37:22.771Z,99397.91
2022-08-12T10:40:07.380Z,99410.88
2022-08-12T10:43:00.484Z,99417.19
2022-08-12T10:45:38.051Z,99404.66
2022-08-12T10:48:21.219Z,99409.56
2022-08-12T10:50:58.301Z,99407.84
2022-08-12T10:53:46.040Z,99404.78
2022-08-12T10:56:17.800Z,99403.19
2022-08-12T10:58:46.785Z,99403.75
2022-08-12T11:01:48.856Z,99397.22
2022-08-12T11:04:28.474Z,99385.88
2022-08-12T11:07:05.444Z,99392.47
2022-08-12T11:10:00.936Z,99387.91
2022-08-12T11:12:56.933Z,99385.38
2022-08-12T11:15:24.384Z,99379.91
2022-08-12T11:18:03.272Z,99381.50
2022-08-12T11:20:31.422Z,99374.69
2022-08-12T11:23:04.164Z,99367.66
2022-08-12T11:25:57.949Z,99376.00
2022-08-12T11:28:34.709Z,99366.69
2022-08-12T11:31:07.324Z,99374.69
2022-08-12T11:34:06.235Z,99364.81
2022-08-12T11:36:28.448Z,99363.69
2022-08-12T11:38:57.700Z,99359.13
2022-08-12T11:41:31.823Z,99359.19
2022-08-12T11:44:35.044Z,99367.69
2022-08-12T11:46:53.704Z,99355.19
2022-08-12T11:49:30.582Z,99341.69
2022-08-12T11:52:01.100Z,99339.72
2022-08-12T11:54:30.073Z,99337.16
2022-08-12T11:57:02.400Z,99336.50
2022-08-12T12:02:21.692Z,99329.75
2022-08-12T12:04:53.111Z,99332.03
2022-08-12T12:08:36.702Z,99331.00
2022-08-12T12:10:17.951Z,99339.09
2022-08-12T12:12:49.434Z,99339.66
2022-08-12T12:15:25.299Z,99337.50
2022-08-12T12:18:08.240Z,99330.97
2022-08-12T12:20:40.132Z,99318.81
2022-08-12T12:23:28.879Z,99320.16
2022-08-12T12:26:07.138Z,99334.53
2022-08-12T12:28:40.841Z,99324.78
2022-08-12T12:32:10.164Z,99322.88
2022-08-12T12:34:11.946Z,99322.75
2022-08-12T12:36:58.203Z,99310.31
2022-08-12T12:39:28.168Z,99295.31
2022-08-12T12:42:42.725Z,99304.72
2022-08-12T12:44:53.420Z,99303.81
2022-08-12T12:47:28.657Z,99302.75
2022-08-12T12:49:59.317Z,99287.53
2022-08-12T12:52:28.563Z,99290.84
2022-08-12T12:54:59.230Z,99291.38
2022-08-12T12:57:59.759Z,99291.69
2022-08-12T13:00:18.493Z,99290.88
2022-08-12T13:02:56.024Z,99287.09
2022-08-12T13:05:27.895Z,99288.53
2022-08-12T13:08:00.686Z,99290.66
2022-08-12T13:10:30.982Z,99285.31
2022-08-12T13:14:10.082Z,99281.88
2022-08-12T13:16:01.852Z,99278.81
2022-08-12T13:18:31.853Z,99271.91
2022-08-12T13:20:59.883Z,99268.53
2022-08-12T13:23:37.328Z,99268.28
2022-08-12T13:26:04.662Z,99274.38
2022-08-12T13:28:33.361Z,99265.75
2022-08-12T13:31:05.352Z,99272.31
2022-08-12T13:33:48.535Z,99262.81
2022-08-12T13:36:25.524Z,99264.59
2022-08-12T13:38:54.649Z,99266.25
2022-08-12T13:41:36.935Z,99259.78
2022-08-12T13:44:10.622Z,99260.44
2022-08-12T13:46:41.237Z,99270.00
2022-08-12T13:49:17.708Z,99264.09
2022-08-12T13:52:06.350Z,99256.22
2022-08-12T13:54:37.198Z,99263.19
2022-08-12T13:57:10.930Z,99254.94
2022-08-12T13:59:48.774Z,99255.25
2022-08-12T14:02:25.371Z,99253.69
2022-08-12T14:04:56.351Z,99246.09
2022-08-12T14:07:28.595Z,99246.84
2022-08-12T14:10:31.780Z,99248.13
2022-08-12T14:13:05.313Z,99242.03
2022-08-12T14:15:47.836Z,99234.63
2022-08-12T14:18:18.556Z,99248.28
2022-08-12T14:20:48.905Z,99244.16
2022-08-12T14:24:05.206Z,99251.63
2022-08-12T14:26:15.087Z,99254.88
2022-08-12T14:28:57.556Z,99231.84
2022-08-12T14:31:31.382Z,99230.50
2022-08-12T14:33:59.973Z,99226.97
2022-08-12T14:36:29.479Z,99227.00
2022-08-12T14:39:01.348Z,99233.88
2022-08-12T14:41:37.269Z,99225.75
2022-08-12T14:44:58.107Z,99223.47
2022-08-12T14:47:07.550Z,99223.47
2022-08-12T14:50:37.020Z,99224.38
2022-08-12T14:53:15.412Z,99228.13
2022-08-12T14:58:03.178Z,99231.38
2022-08-12T15:00:52.477Z,99227.38
2022-08-12T15:03:52.565Z,99222.09
2022-08-12T15:06:44.666Z,99220.47
2022-08-12T15:09:12.848Z,99213.00
2022-08-12T15:11:54.925Z,99210.38
2022-08-12T15:14:30.393Z,99214.00
2022-08-12T15:17:02.183Z,99211.28
2022-08-12T15:20:27.961Z,99212.53
2022-08-12T15:22:35.298Z,99207.94
2022-08-12T15:25:09.603Z,99215.50
2022-08-12T15:28:20.402Z,99221.38
2022-08-12T15:30:32.124Z,99207.84
2022-08-12T15:33:00.505Z,99210.94
2022-08-12T15:35:53.128Z,99217.78
2022-08-12T15:38:31.527Z,99214.69
2022-08-12T15:41:02.116Z,99222.72
2022-08-12T15:43:51.626Z,99226.13
2022-08-12T15:46:25.551Z,99221.94
2022-08-12T15:48:53.902Z,99214.94
2022-08-12T15:51:59.417Z,99216.13
2022-08-12T15:54:35.144Z,99215.59
2022-08-12T15:57:16.999Z,99208.50
2022-08-12T16:00:00.252Z,99206.25
2022-08-12T16:02:50.084Z,99200.22
2022-08-12T16:06:11.527Z,99214.91
2022-08-12T16:08:19.704Z,99218.22
2022-08-12T16:10:53.398Z,99219.25
2022-08-12T16:13:32.821Z,99202.75
2022-08-12T16:16:23.140Z,99209.88
2022-08-12T16:18:56.054Z,99205.09
2022-08-12T16:21:52.654Z,99202.63
2022-08-12T16:24:15.420Z,99208.16
2022-08-12T16:26:45.207Z,99203.63
2022-08-12T16:29:24.955Z,99197.06
2022-08-12T16:31:55.477Z,99201.41
2022-08-12T16:34:42.340Z,99201.72
2022-08-12T16:37:14.680Z,99184.88
2022-08-12T16:39:59.893Z,99191.88
2022-08-12T16:42:29.338Z,99181.97
2022-08-12T16:45:02.761Z,99189.44
2022-08-12T16:47:57.527Z,99193.75
2022-08-12T16:50:21.026Z,99193.47
2022-08-12T16:53:02.105Z,99194.19
2022-08-12T16:55:41.902Z,99192.50
2022-08-12T16:58:27.976Z,99190.63
2022-08-12T17:00:55.722Z,99185.47
2022-08-12T17:03:28.942Z,99189.69
2022-08-12T17:06:00.010Z,99187.16
2022-08-12T17:08:29.141Z,99190.00
2022-08-12T17:10:57.238Z,99194.28
2022-08-12T17:13:27.169Z,99175.50
2022-08-12T17:16:06.323Z,99181.47
2022-08-12T17:18:57.035Z,99183.75
2022-08-12T17:21:41.178Z,99189.63
2022-08-12T17:24:21.614Z,99185.69
2022-08-12T17:26:51.887Z,99186.94
2022-08-12T17:29:32.129Z,99180.63
2022-08-12T17:32:11.707Z,99186.97
2022-08-12T17:35:00.156Z,99186.09
2022-08-12T17:37:28.239Z,99181.09
2022-08-12T17:40:12.383Z,99192.94
2022-08-12T17:42:47.627Z,99183.31
2022-08-12T17:45:20.787Z,99184.97
2022-08-12T17:48:00.780Z,99179.66
2022-08-12T17:50:50.443Z,99183.22
2022-08-12T17:53:22.084Z,99190.97
2022-08-12T17:55:51.844Z,99189.09
2022-08-12T17:58:37.373Z,99189.72
2022-08-12T18:01:11.251Z,99189.50
2022-08-12T18:04:05.144Z,99185.19
2022-08-12T18:06:28.537Z,99187.88
2022-08-12T18:08:59.326Z,99192.66
2022-08-12T18:12:04.781Z,99187.06
2022-08-12T18:14:37.019Z,99195.63
2022-08-12T18:17:08.205Z,99198.53
2022-08-12T18:20:05.169Z,99197.63
2022-08-12T18:22:31.706Z,99202.22
2022-08-12T18:25:03.828Z,99207.84
2022-08-12T18:27:43.840Z,99212.53
2022-08-12T18:30:20.331Z,99201.66
2022-08-12T18:32:54.166Z,99214.41
2022-08-12T18:35:47.927Z,99213.44
2022-08-12T18:38:22.450Z,99217.75
2022-08-12T18:41:10.823Z,99221.25
2022-08-12T18:44:00.279Z,99218.78
2022-08-12T18:46:56.036Z,99218.66
2022-08-12T18:49:39.598Z,99223.22
2022-08-12T18:52:11.933Z,99218.75
2022-08-12T18:54:49.239Z,99227.06
2022-08-12T18:58:06.151Z,99225.44
2022-08-12T19:00:20.969Z,99220.13
2022-08-12T19:02:53.946Z,99222.81
2022-08-12T19:05:53.228Z,99227.06
2022-08-12T19:08:15.503Z,99227.25
2022-08-12T19:10:50.622Z,99224.56
2022-08-12T19:13:50.589Z,99230.38
2022-08-12T19:16:23.836Z,99229.44
2022-08-12T19:18:53.163Z,99239.00
2022-08-12T19:21:20.915Z,99238.53
2022-08-12T19:24:13.642Z,99243.31
2022-08-12T19:26:43.548Z,99231.66
2022-08-12T19:29:15.591Z,99240.50
2022-08-12T19:31:58.318Z,99240.22
2022-08-12T19:36:06.981Z,99239.34
2022-08-12T19:38:04.366Z,99242.75
2022-08-12T19:40:31.181Z,99243.63
2022-08-12T19:43:17.806Z,99235.56
2022-08-12T19:45:52.254Z,99243.81
2022-08-12T19:48:24.277Z,99249.72
2022-08-12T19:50:55.890Z,99250.34
2022-08-12T19:53:27.637Z,99239.88
2022-08-12T19:55:57.135Z,99258.50
2022-08-12T19:58:26.723Z,99258.56
2022-08-12T20:00:55.584Z,99259.22
2022-08-12T20:03:39.320Z,99265.63
2022-08-12T20:06:13.959Z,99264.63
2022-08-12T20:08:48.997Z,99265.44
2022-08-12T20:12:14.441Z,99273.69
2022-08-12T20:14:19.821Z,99265.75
2022-08-12T20:16:57.906Z,99271.09
2022-08-12T20:20:05.522Z,99275.59
2022-08-12T20:22:29.846Z,99262.09
2022-08-12T20:25:01.060Z,99263.75
2022-08-12T20:28:03.281Z,99262.69
2022-08-12T20:33:17.439Z,99263.53
2022-08-12T20:36:13.948Z,99268.00
2022-08-12T20:38:40.593Z,99260.22
2022-08-12T20:41:16.266Z,99263.72
2022-08-12T20:43:50.734Z,99273.00
2022-08-12T20:46:21.953Z,99272.00
2022-08-12T20:48:54.872Z,99268.28
2022-08-12T20:51:27.575Z,99268.72
2022-08-12T20:53:58.744Z,99274.47
2022-08-12T20:56:35.506Z,99274.03
2022-08-12T20:59:11.064Z,99276.56
2022-08-12T21:01:47.904Z,99270.59
2022-08-12T21:04:36.769Z,99278.00
2022-08-12T21:07:09.818Z,99273.91
2022-08-12T21:09:51.971Z,99273.91
2022-08-12T21:12:31.144Z,99268.13
2022-08-12T21:15:24.048Z,99274.50
2022-08-12T21:18:10.714Z,99268.72
2022-08-12T21:20:55.820Z,99268.50
2022-08-12T21:23:23.980Z,99273.84
2022-08-12T21:25:56.449Z,99269.09
2022-08-12T21:28:27.597Z,99272.56
2022-08-12T21:32:35.120Z,99266.00
2022-08-12T21:34:08.088Z,99274.84
2022-08-12T21:36:48.290Z,99280.75
2022-08-12T21:39:35.050Z,99281.81
2022-08-12T21:42:06.988Z,99277.88
2022-08-12T21:45:46.020Z,99277.13
2022-08-12T21:47:29.960Z,99276.50
2022-08-12T21:50:06.512Z,99278.53
2022-08-12T21:52:37.470Z,99289.25
2022-08-12T21:55:18.019Z,99278.06
2022-08-12T21:57:53.374Z,99274.78
2022-08-12T22:00:32.327Z,99271.28
2022-08-12T22:04:04.396Z,99275.00
2022-08-12T22:06:31.529Z,99273.91
2022-08-12T22:09:17.262Z,99282.28
2022-08-12T22:11:58.726Z,99279.25
2022-08-12T22:14:29.809Z,99285.72
2022-08-12T22:17:00.506Z,99284.06
2022-08-12T22:19:29.199Z,99280.41
2022-08-12T22:22:03.982Z,99279.47
2022-08-12T22:24:34.197Z,99287.22
2022-08-12T22:27:17.912Z,99276.03
2022-08-12T22:30:11.241Z,99284.56
2022-08-12T22:32:49.972Z,99283.97
2022-08-12T22:35:56.639Z,99281.47
2022-08-12T22:38:20.295Z,99276.84
2022-08-12T22:40:49.490Z,99277.03
2022-08-12T22:43:37.797Z,99274.09
2022-08-12T22:46:53.530Z,99278.59
2022-08-12T22:49:36.428Z,99273.25
2022-08-12T22:52:12.245Z,99282.47
2022-08-12T22:54:58.053Z,99272.03
2022-08-12T22:57:54.401Z,99270.94
2022-08-12T23:00:24.689Z,99268.78
2022-08-12T23:03:02.637Z,99268.78
2022-08-12T23:05:56.719Z,99265.50
2022-08-12T23:08:22.652Z,99273.94
2022-08-12T23:10:50.401Z,99270.56
2022-08-12T23:13:42.878Z,99267.28
2022-08-12T23:16:28.085Z,99268.97
2022-08-12T23:18:59.704Z,99267.16
2022-08-12T23:21:40.167Z,99267.06
2022-08-12T23:24:17.431Z,99266.88
2022-08-12T23:27:05.380Z,99263.53
2022-08-12T23:29:43.172Z,99257.72
2022-08-12T23:32:36.684Z,99258.63
2022-08-12T23:35:03.558Z,99257.38
2022-08-12T23:37:47.374Z,99263.16
2022-08-12T23:40:22.223Z,99255.78
2022-08-12T23:42:58.489Z,99258.63
2022-08-12T23:45:31.460Z,99250.03
2022-08-12T23:48:03.187Z,99258.72
2022-08-12T23:50:34.125Z,99255.03
2022-08-12T23:53:17.021Z,99257.44
2022-08-12T23:55:50.758Z,99248.38
2022-08-12T23:58:25.810Z,99251.31
